Aeroporto :
LOGIN :

Iscrizione | Disclaimer

   EN    FR    IT 

 










Sommario :    VFR   VFR Marginale   IFR   IFR Intensivo   IFR Molto Intensivo
Visibilità : 
Base nubi : 
>= 8 km
>= 3000ft
5 / 8 km
1000 / 3000 ft
1500m / 5 km
500 / 1000 ft
800 / 1500m
200 / 500 ft
< 800m
< 200 ft
Simboli :   Temporali  Nebbia  Neve Forte  Precipitazioni Forti  Vento > 20 kt
SIGMETs :   Varie  Temporali  Ghiacco  Turbolenza  Onda orograficha  Ceneri Vulcaniche






- Altitudine del aeroporto : 146 ft
- Codice IATA : RKE


EKRK - Roskilde Tune

ULTIMO METAR :
  • 301050Z AUTO 36012KT 320V030 9999 SCT049/// 06/M05 Q1024

METARs OBSOLETI :
  • 301020Z AUTO 35015KT 9999 BKN045/// 05/M05 Q1024
  • 300950Z AUTO 35012KT 9999 BKN039/// 06/M04 Q1024
  • 300920Z AUTO 35012KT 9999 FEW041/// 06/M02 Q1024
  • 300850Z AUTO 34011KT 9999 FEW025/// 06/M03 Q1023
  • 300820Z AUTO 34007KT 9999 FEW019/// FEW051/// 06/01 Q1023
  • 300750Z AUTO 33007KT 300V010 9999 FEW015/// 05/01 Q1023

TAF TAF EKRK
Valido dal 30 a 09 ore il 30 a 18 ore UTC


300822Z 3009/3018 02012KT 9999 SCT025



MetMap, La meteo Aeronautica in un colpo d'occhio ! - Copyright ORBIFLY Dicembre 2007 - Disclaimer

ORBIFLY MET'MAP TEAM :

Programmazione e sviluppo : Alexandra Zaïnal
Concezione : Baudouin d'Aumeries
Aiuto per la programmazione : Marc-Olivier Méhu
Supporto tecnico e logistico : Manuel Goepfert
Aiuto per la traduzione : Arnaldo La Scala

Contatto : metmap@orbifly.com




FONTI E CREDITI :

   NOAA